createdAt,value
2023-02-17T00:01:26.330Z,13.55
2023-02-17T00:04:09.040Z,15.82
2023-02-17T00:06:51.619Z,15.52
2023-02-17T00:09:34.326Z,16.00
2023-02-17T00:12:18.281Z,14.50
2023-02-17T00:15:00.899Z,15.52
2023-02-17T00:17:43.444Z,17.02
2023-02-17T00:20:26.036Z,16.17
2023-02-17T00:23:08.666Z,17.33
2023-02-17T00:25:51.394Z,15.52
2023-02-17T00:28:35.384Z,16.60
2023-02-17T00:31:19.717Z,16.55
2023-02-17T00:34:02.457Z,16.35
2023-02-17T00:36:46.715Z,16.30
2023-02-17T00:39:29.804Z,18.23
2023-02-17T00:42:12.408Z,15.40
2023-02-17T00:44:56.347Z,16.85
2023-02-17T00:47:38.940Z,15.90
2023-02-17T00:50:21.495Z,18.08
2023-02-17T00:53:04.165Z,19.23
2023-02-17T00:55:46.728Z,19.15
2023-02-17T00:58:29.369Z,16.90
2023-02-17T01:01:13.304Z,17.55
2023-02-17T01:03:56.660Z,18.25
2023-02-17T01:06:40.376Z,19.23
2023-02-17T01:09:22.949Z,18.35
2023-02-17T01:12:05.634Z,19.45
2023-02-17T01:14:48.360Z,16.23
2023-02-17T01:17:33.145Z,18.50
2023-02-17T01:20:15.860Z,16.48
2023-02-17T01:22:58.503Z,16.40
2023-02-17T01:25:41.575Z,16.52
2023-02-17T01:28:24.355Z,15.85
2023-02-17T01:31:08.623Z,17.15
2023-02-17T01:33:52.629Z,17.42
2023-02-17T01:36:35.246Z,17.17
2023-02-17T01:39:18.262Z,16.92
2023-02-17T01:42:02.461Z,14.93
2023-02-17T01:45:04.250Z,16.65
2023-02-17T01:47:50.076Z,14.45
2023-02-17T01:50:36.706Z,15.88
2023-02-17T01:53:23.008Z,15.30
2023-02-17T01:56:06.853Z,12.60
2023-02-17T01:58:52.406Z,14.50
2023-02-17T02:01:36.347Z,15.07
2023-02-17T02:04:20.175Z,14.50
2023-02-17T02:07:04.981Z,13.82
2023-02-17T02:09:49.795Z,13.07
2023-02-17T02:12:33.671Z,12.38
2023-02-17T02:15:18.320Z,12.77
2023-02-17T02:18:05.866Z,11.15
2023-02-17T02:20:57.257Z,11.93
2023-02-17T02:23:51.720Z,13.43
2023-02-17T02:26:47.622Z,12.23
2023-02-17T02:29:51.600Z,11.55
2023-02-17T02:32:49.414Z,12.05
2023-02-17T02:35:37.468Z,12.80
2023-02-17T02:38:23.056Z,10.38
2023-02-17T02:41:09.121Z,11.00
2023-02-17T02:43:52.872Z,12.40
2023-02-17T02:46:35.602Z,10.23
2023-02-17T02:49:18.335Z,10.27
2023-02-17T02:52:06.495Z,9.75
2023-02-17T02:54:53.646Z,10.10
2023-02-17T02:57:40.646Z,9.30
2023-02-17T03:00:26.380Z,8.68
2023-02-17T03:03:11.033Z,9.93
2023-02-17T03:05:56.539Z,9.68
2023-02-17T03:08:42.967Z,9.07
2023-02-17T03:11:32.367Z,10.23
2023-02-17T03:14:21.688Z,9.90
2023-02-17T03:17:04.349Z,9.98
2023-02-17T03:19:47.644Z,10.00
2023-02-17T03:22:34.236Z,9.45
2023-02-17T03:25:18.505Z,9.18
2023-02-17T03:28:02.327Z,10.50
2023-02-17T03:30:45.706Z,9.38
2023-02-17T03:33:28.646Z,8.77
2023-02-17T03:36:11.240Z,8.73
2023-02-17T03:38:53.874Z,8.98
2023-02-17T03:41:37.773Z,8.18
2023-02-17T03:44:20.662Z,8.02
2023-02-17T03:47:03.252Z,8.43
2023-02-17T03:49:45.868Z,9.63
2023-02-17T03:52:28.515Z,9.73
2023-02-17T03:55:11.197Z,8.48
2023-02-17T03:57:55.370Z,9.00
2023-02-17T04:00:38.004Z,8.45
2023-02-17T04:03:20.612Z,10.05
2023-02-17T04:06:03.662Z,9.20
2023-02-17T04:08:46.526Z,9.35
2023-02-17T04:11:29.152Z,8.90
2023-02-17T04:14:13.149Z,9.48
2023-02-17T04:16:55.815Z,9.00
2023-02-17T04:19:38.416Z,10.00
2023-02-17T04:22:21.033Z,8.68
2023-02-17T04:25:03.618Z,8.43
2023-02-17T04:27:46.242Z,8.32
2023-02-17T04:30:30.409Z,6.82
2023-02-17T04:33:13.032Z,7.55
2023-02-17T04:35:59.416Z,8.10
2023-02-17T04:38:42.217Z,7.53
2023-02-17T04:41:24.828Z,7.97
2023-02-17T04:44:07.443Z,7.53
2023-02-17T04:46:51.372Z,9.15
2023-02-17T04:49:34.255Z,7.07
2023-02-17T04:52:16.823Z,8.00
2023-02-17T04:54:59.528Z,8.07
2023-02-17T04:57:42.137Z,7.63
2023-02-17T05:00:24.874Z,8.05
2023-02-17T05:03:08.799Z,8.02
2023-02-17T05:05:51.473Z,9.18
2023-02-17T05:08:34.038Z,8.02
2023-02-17T05:11:16.679Z,8.60
2023-02-17T05:13:59.319Z,9.27
2023-02-17T05:16:41.952Z,9.48
2023-02-17T05:19:25.868Z,9.40
2023-02-17T05:22:08.456Z,9.13
2023-02-17T05:24:51.077Z,8.10
2023-02-17T05:27:34.343Z,9.07
2023-02-17T05:30:17.076Z,8.93
2023-02-17T05:33:00.796Z,9.40
2023-02-17T05:35:44.767Z,9.23
2023-02-17T05:38:27.438Z,9.57
2023-02-17T05:41:10.068Z,9.77
2023-02-17T05:43:52.979Z,9.48
2023-02-17T05:46:35.579Z,11.45
2023-02-17T05:49:18.212Z,10.00
2023-02-17T05:52:02.191Z,9.68
2023-02-17T05:54:44.912Z,8.95
2023-02-17T05:57:27.585Z,9.07
2023-02-17T06:00:10.703Z,9.75
2023-02-17T06:02:56.011Z,9.77
2023-02-17T06:05:38.706Z,9.98
2023-02-17T06:08:22.709Z,11.48
2023-02-17T06:11:05.647Z,11.52
2023-02-17T06:13:48.354Z,11.13
2023-02-17T06:16:31.178Z,11.00
2023-02-17T06:19:13.827Z,14.38
2023-02-17T06:21:57.090Z,12.43
2023-02-17T06:24:41.134Z,14.52
2023-02-17T06:27:23.868Z,13.18
2023-02-17T06:30:07.534Z,13.43
2023-02-17T06:32:50.456Z,13.77
2023-02-17T06:35:33.100Z,13.05
2023-02-17T06:38:15.789Z,13.70
2023-02-17T06:40:59.788Z,14.02
2023-02-17T06:43:42.501Z,12.10
2023-02-17T06:46:25.232Z,14.55
2023-02-17T06:49:08.210Z,15.75
2023-02-17T06:51:50.863Z,14.00
2023-02-17T06:54:33.565Z,15.18
2023-02-17T06:57:17.556Z,15.85
2023-02-17T07:00:00.242Z,16.83
2023-02-17T07:02:43.020Z,14.68
2023-02-17T07:05:25.706Z,16.45
2023-02-17T07:08:08.342Z,17.80
2023-02-17T07:10:51.268Z,16.98
2023-02-17T07:13:35.354Z,17.98
2023-02-17T07:16:18.126Z,17.80
2023-02-17T07:19:00.837Z,17.25
2023-02-17T07:21:43.936Z,18.13
2023-02-17T07:24:26.817Z,19.75
2023-02-17T07:27:10.828Z,18.60
2023-02-17T07:29:55.379Z,19.50
2023-02-17T07:32:38.090Z,16.98
2023-02-17T07:35:20.751Z,16.98
2023-02-17T07:38:03.498Z,20.80
2023-02-17T07:40:46.114Z,19.88
2023-02-17T07:43:29.186Z,16.27
2023-02-17T07:46:14.623Z,17.70
2023-02-17T07:48:57.742Z,18.75
2023-02-17T07:51:40.356Z,19.00
2023-02-17T07:54:23.091Z,19.48
2023-02-17T07:57:05.707Z,17.48
2023-02-17T07:59:48.493Z,20.70
2023-02-17T08:02:32.596Z,17.05
2023-02-17T08:05:15.306Z,18.90
2023-02-17T08:08:11.886Z,17.70
2023-02-17T08:11:11.863Z,20.40
2023-02-17T08:13:54.484Z,18.48
2023-02-17T08:16:37.211Z,17.70
2023-02-17T08:19:21.297Z,17.08
2023-02-17T08:22:04.354Z,17.15
2023-02-17T08:24:47.308Z,14.35
2023-02-17T08:27:30.238Z,16.35
2023-02-17T08:30:13.186Z,15.75
2023-02-17T08:32:55.903Z,15.15
2023-02-17T08:35:39.906Z,13.88
2023-02-17T08:38:22.606Z,13.95
2023-02-17T08:41:12.761Z,13.73
2023-02-17T08:43:55.481Z,13.77
2023-02-17T08:46:38.352Z,12.98
2023-02-17T08:49:22.164Z,14.65
2023-02-17T08:52:06.236Z,14.93
2023-02-17T08:54:51.569Z,11.65
2023-02-17T08:57:35.461Z,11.73
2023-02-17T09:00:19.385Z,10.80
2023-02-17T09:03:02.101Z,13.60
2023-02-17T09:05:44.786Z,13.75
2023-02-17T09:08:53.084Z,9.88
2023-02-17T09:11:37.207Z,9.73
2023-02-17T09:14:20.250Z,10.00
2023-02-17T09:17:04.398Z,10.95
2023-02-17T09:19:47.125Z,12.90
2023-02-17T09:22:32.493Z,9.25
2023-02-17T09:25:15.284Z,9.13
2023-02-17T09:27:59.992Z,8.15
2023-02-17T09:30:42.923Z,8.77
2023-02-17T09:33:27.140Z,10.20
2023-02-17T09:36:11.597Z,9.95
2023-02-17T09:38:54.364Z,8.75
2023-02-17T09:41:40.313Z,7.88
2023-02-17T09:44:25.874Z,10.63
2023-02-17T09:47:11.509Z,9.10
2023-02-17T09:49:56.423Z,9.38
2023-02-17T09:52:44.519Z,9.25
2023-02-17T09:55:30.306Z,9.13
2023-02-17T09:58:14.300Z,10.00
2023-02-17T10:00:59.210Z,10.77
2023-02-17T10:03:43.414Z,10.40
2023-02-17T10:06:28.694Z,10.90
2023-02-17T10:09:13.729Z,9.95
2023-02-17T10:12:00.759Z,10.40
2023-02-17T10:14:45.245Z,11.20
2023-02-17T10:17:33.447Z,11.43
2023-02-17T10:20:17.794Z,11.73
2023-02-17T10:23:03.035Z,11.02
2023-02-17T10:25:51.112Z,10.02
2023-02-17T10:28:43.214Z,11.55
2023-02-17T10:31:29.633Z,13.25
2023-02-17T10:34:20.684Z,10.95
2023-02-17T10:37:04.949Z,9.68
2023-02-17T10:39:48.963Z,9.88
2023-02-17T10:42:33.286Z,9.32
2023-02-17T10:45:20.738Z,8.30
2023-02-17T10:48:05.503Z,7.88
2023-02-17T10:50:49.808Z,8.23
2023-02-17T10:53:33.580Z,9.38
2023-02-17T10:56:18.455Z,8.55
2023-02-17T10:59:06.275Z,9.63
2023-02-17T11:01:49.385Z,8.13
2023-02-17T11:04:41.311Z,8.10
2023-02-17T11:07:28.032Z,7.53
2023-02-17T11:10:21.693Z,7.13
2023-02-17T11:13:06.237Z,10.57
2023-02-17T11:15:48.975Z,7.00
2023-02-17T11:18:33.624Z,7.95
2023-02-17T11:21:16.454Z,7.57
2023-02-17T11:24:01.911Z,8.10
2023-02-17T11:26:44.629Z,8.45
2023-02-17T11:29:27.519Z,9.25
2023-02-17T11:32:13.840Z,7.60
2023-02-17T11:34:57.911Z,10.73
2023-02-17T11:37:43.211Z,8.35
2023-02-17T11:40:29.771Z,8.82
2023-02-17T11:43:19.063Z,11.57
2023-02-17T11:46:06.140Z,9.27
2023-02-17T11:49:11.415Z,9.30
2023-02-17T11:52:01.125Z,11.05
2023-02-17T11:54:50.956Z,10.57
2023-02-17T11:57:39.435Z,10.65
2023-02-17T12:00:23.242Z,10.60
2023-02-17T12:03:33.102Z,10.13
2023-02-17T12:06:22.059Z,12.13
2023-02-17T12:09:09.685Z,10.65
2023-02-17T12:11:59.262Z,9.65
2023-02-17T12:14:51.704Z,9.85
2023-02-17T12:17:39.054Z,12.63
2023-02-17T12:20:29.543Z,8.15
2023-02-17T12:23:24.537Z,8.75
2023-02-17T12:26:12.151Z,7.30
2023-02-17T12:29:03.681Z,6.80
2023-02-17T12:31:57.481Z,7.07
2023-02-17T12:34:41.969Z,8.52
2023-02-17T12:37:25.400Z,5.55
2023-02-17T12:40:15.733Z,7.30
2023-02-17T12:43:01.315Z,6.60
2023-02-17T12:45:45.178Z,7.82
2023-02-17T12:48:33.901Z,8.20
2023-02-17T12:51:18.522Z,6.35
2023-02-17T12:54:05.836Z,7.43
2023-02-17T12:56:51.652Z,4.45
2023-02-17T12:59:35.493Z,5.65
2023-02-17T13:02:20.665Z,5.03
2023-02-17T13:05:08.362Z,6.03
2023-02-17T13:07:54.669Z,5.47
2023-02-17T13:10:38.516Z,4.35
2023-02-17T13:13:27.489Z,4.65
2023-02-17T13:16:12.057Z,5.93
2023-02-17T13:19:09.706Z,4.72
2023-02-17T13:21:55.332Z,6.50
2023-02-17T13:24:38.718Z,5.97
2023-02-17T13:27:22.528Z,4.30
2023-02-17T13:30:08.618Z,6.80
2023-02-17T13:33:01.702Z,5.22
2023-02-17T13:35:44.433Z,6.43
2023-02-17T13:38:29.495Z,5.80
2023-02-17T13:41:14.035Z,5.10
2023-02-17T13:43:57.172Z,5.85
2023-02-17T13:46:39.902Z,6.30
2023-02-17T13:49:24.349Z,6.90
2023-02-17T13:52:11.250Z,4.03
2023-02-17T13:54:56.328Z,6.55
2023-02-17T13:57:38.992Z,5.80
2023-02-17T14:00:22.449Z,5.97
2023-02-17T14:03:07.296Z,4.82
2023-02-17T14:05:50.991Z,6.72
2023-02-17T14:08:35.808Z,4.47
2023-02-17T14:11:21.719Z,7.07
2023-02-17T14:14:05.008Z,4.00
2023-02-17T14:16:56.562Z,4.35
2023-02-17T14:19:43.141Z,2.97
2023-02-17T14:22:28.798Z,2.63
2023-02-17T14:25:13.805Z,6.50
2023-02-17T14:27:57.990Z,6.50
2023-02-17T14:30:40.851Z,8.77
2023-02-17T14:33:24.631Z,4.80
2023-02-17T14:36:11.171Z,5.75
2023-02-17T14:38:55.851Z,6.47
2023-02-17T14:41:38.480Z,8.23
2023-02-17T14:44:22.555Z,5.70
2023-02-17T14:47:05.361Z,6.60
2023-02-17T14:49:48.107Z,6.80
2023-02-17T14:52:30.765Z,9.85
2023-02-17T14:55:16.776Z,10.27
2023-02-17T14:57:59.572Z,11.20
2023-02-17T15:00:43.679Z,7.78
2023-02-17T15:03:26.700Z,10.93
2023-02-17T15:06:12.825Z,9.43
2023-02-17T15:08:55.524Z,8.70
2023-02-17T15:11:38.165Z,9.55
2023-02-17T15:14:21.994Z,6.80
2023-02-17T15:17:06.063Z,7.57
2023-02-17T15:19:49.428Z,7.78
2023-02-17T15:22:32.170Z,10.05
2023-02-17T15:25:15.441Z,15.70
2023-02-17T15:27:58.229Z,8.40
2023-02-17T15:30:40.964Z,9.90
2023-02-17T15:33:25.726Z,11.52
2023-02-17T15:36:08.975Z,7.97
2023-02-17T15:38:52.001Z,7.68
2023-02-17T15:41:34.691Z,11.77
2023-02-17T15:44:18.916Z,7.80
2023-02-17T15:47:01.674Z,13.43
2023-02-17T15:49:45.856Z,12.20
2023-02-17T15:52:28.511Z,12.00
2023-02-17T15:55:11.185Z,12.07
2023-02-17T15:57:55.616Z,9.75
2023-02-17T16:00:38.367Z,8.63
2023-02-17T16:03:21.224Z,11.57
2023-02-17T16:08:50.585Z,10.05
2023-02-17T16:11:33.614Z,10.82
2023-02-17T16:14:22.074Z,8.35
2023-02-17T16:17:05.893Z,10.93
2023-02-17T16:19:48.656Z,9.50
2023-02-17T16:22:33.518Z,7.70
2023-02-17T16:25:16.945Z,10.20
2023-02-17T16:28:00.003Z,10.07
2023-02-17T16:30:42.852Z,8.40
2023-02-17T16:33:25.560Z,12.98
2023-02-17T16:36:12.849Z,9.70
2023-02-17T16:38:56.932Z,11.60
2023-02-17T16:41:39.901Z,7.55
2023-02-17T16:44:23.632Z,7.43
2023-02-17T16:47:07.091Z,9.93
2023-02-17T16:49:50.429Z,9.70
2023-02-17T16:52:33.090Z,7.57
2023-02-17T16:55:18.342Z,12.57
2023-02-17T16:58:01.572Z,6.72
2023-02-17T17:00:46.437Z,8.75
2023-02-17T17:03:29.096Z,13.82
2023-02-17T17:06:17.919Z,8.00
2023-02-17T17:09:00.623Z,8.95
2023-02-17T17:11:44.804Z,9.63
2023-02-17T17:14:27.467Z,8.13
2023-02-17T17:17:11.195Z,11.20
2023-02-17T17:19:53.844Z,12.77
2023-02-17T17:22:36.589Z,8.98
2023-02-17T17:25:21.082Z,10.15
2023-02-17T17:28:05.761Z,11.40
2023-02-17T17:30:48.797Z,11.40
2023-02-17T17:33:31.509Z,9.25
2023-02-17T17:36:16.702Z,10.18
2023-02-17T17:39:00.187Z,11.43
2023-02-17T17:41:42.851Z,10.23
2023-02-17T17:44:28.098Z,9.95
2023-02-17T17:47:21.352Z,9.82
2023-02-17T17:50:13.798Z,9.60
2023-02-17T17:52:56.478Z,9.70
2023-02-17T17:55:39.169Z,8.75
2023-02-17T17:58:22.004Z,9.00
2023-02-17T18:01:06.459Z,9.10
2023-02-17T18:03:49.679Z,9.18
2023-02-17T18:06:35.046Z,12.48
2023-02-17T18:09:30.870Z,11.02
2023-02-17T18:12:16.275Z,16.33
2023-02-17T18:15:02.598Z,11.38
2023-02-17T18:17:47.142Z,10.50
2023-02-17T18:20:29.854Z,12.23
2023-02-17T18:23:12.654Z,8.82
2023-02-17T18:25:55.332Z,11.88
2023-02-17T18:28:38.045Z,11.80
2023-02-17T18:31:20.746Z,8.77
2023-02-17T18:34:05.113Z,9.90
2023-02-17T18:36:47.796Z,10.23
2023-02-17T18:39:30.665Z,9.75
2023-02-17T18:42:13.317Z,8.45
2023-02-17T18:44:56.756Z,13.65
2023-02-17T18:47:39.481Z,10.85
2023-02-17T18:50:23.587Z,13.60
2023-02-17T18:53:06.252Z,7.30
2023-02-17T18:55:49.839Z,12.07
2023-02-17T18:58:32.455Z,9.95
2023-02-17T19:01:16.019Z,9.85
2023-02-17T19:03:59.157Z,9.77
2023-02-17T19:06:43.582Z,10.90
2023-02-17T19:09:26.257Z,9.35
2023-02-17T19:12:13.331Z,9.38
2023-02-17T19:14:56.610Z,11.50
2023-02-17T19:17:39.303Z,12.35
2023-02-17T19:20:22.025Z,8.90
2023-02-17T19:23:06.133Z,10.88
2023-02-17T19:25:48.799Z,11.32
2023-02-17T19:28:31.687Z,11.80
2023-02-17T19:31:17.401Z,11.95
2023-02-17T19:34:00.399Z,6.38
2023-02-17T19:36:43.423Z,16.65
2023-02-17T19:39:27.702Z,11.50
2023-02-17T19:42:10.388Z,10.07
2023-02-17T19:44:53.144Z,9.68
2023-02-17T19:47:35.821Z,12.98
2023-02-17T19:50:18.767Z,14.02
2023-02-17T19:53:01.455Z,10.63
2023-02-17T19:55:45.577Z,10.00
2023-02-17T19:58:28.276Z,10.55
2023-02-17T20:01:11.771Z,11.85
2023-02-17T20:03:55.163Z,9.75
2023-02-17T20:06:40.066Z,9.95
2023-02-17T20:09:23.330Z,12.40
2023-02-17T20:12:07.960Z,13.15
2023-02-17T20:14:50.644Z,12.85
2023-02-17T20:17:33.378Z,9.23
2023-02-17T20:20:16.306Z,12.50
2023-02-17T20:22:59.239Z,11.38
2023-02-17T20:25:41.972Z,9.60
2023-02-17T20:28:26.265Z,13.48
2023-02-17T20:31:09.566Z,7.82
2023-02-17T20:33:52.440Z,10.80
2023-02-17T20:36:35.328Z,11.38
2023-02-17T20:39:19.811Z,9.95
2023-02-17T20:42:02.900Z,10.13
2023-02-17T20:44:50.217Z,11.10
2023-02-17T20:47:32.983Z,10.60
2023-02-17T20:50:16.926Z,15.13
2023-02-17T20:52:59.598Z,13.45
2023-02-17T20:55:42.253Z,14.40
2023-02-17T20:58:24.938Z,14.20
2023-02-17T21:01:09.421Z,9.23
2023-02-17T21:03:52.192Z,8.85
2023-02-17T21:06:36.250Z,10.65
2023-02-17T21:09:19.442Z,16.05
2023-02-17T21:12:02.263Z,12.70
2023-02-17T21:14:45.245Z,10.57
2023-02-17T21:17:29.672Z,9.23
2023-02-17T21:20:13.711Z,9.45
2023-02-17T21:22:56.418Z,13.43
2023-02-17T21:25:39.108Z,15.60
2023-02-17T21:28:21.827Z,7.70
2023-02-17T21:31:04.878Z,11.75
2023-02-17T21:33:49.007Z,9.40
2023-02-17T21:36:31.795Z,10.75
2023-02-17T21:39:14.627Z,11.32
2023-02-17T21:41:57.279Z,9.02
2023-02-17T21:44:55.028Z,11.35
2023-02-17T21:47:37.753Z,12.45
2023-02-17T21:50:23.260Z,10.00
2023-02-17T21:53:05.925Z,10.65
2023-02-17T21:55:48.625Z,8.82
2023-02-17T21:58:31.939Z,10.93
2023-02-17T22:01:14.931Z,12.23
2023-02-17T22:03:58.322Z,12.85
2023-02-17T22:06:42.988Z,9.52
2023-02-17T22:09:25.687Z,9.55
2023-02-17T22:12:08.522Z,10.88
2023-02-17T22:14:51.201Z,13.23
2023-02-17T22:17:35.892Z,14.05
2023-02-17T22:20:19.290Z,8.00
2023-02-17T22:23:03.382Z,11.57
2023-02-17T22:25:46.068Z,5.15
2023-02-17T22:28:28.783Z,14.27
2023-02-17T22:31:12.945Z,13.30
2023-02-17T22:33:56.889Z,7.93
2023-02-17T22:36:39.600Z,11.02
2023-02-17T22:39:23.682Z,9.07
2023-02-17T22:42:07.539Z,11.05
2023-02-17T22:44:50.463Z,8.07
2023-02-17T22:47:33.172Z,10.57
2023-02-17T22:50:15.924Z,13.80
2023-02-17T22:52:58.614Z,12.73
2023-02-17T22:55:42.647Z,10.43
2023-02-17T22:58:25.782Z,9.10
2023-02-17T23:01:09.838Z,11.00
2023-02-17T23:03:54.351Z,11.07
2023-02-17T23:06:38.011Z,15.85
2023-02-17T23:09:20.922Z,11.70
2023-02-17T23:12:05.104Z,14.63
2023-02-17T23:14:47.812Z,9.23
2023-02-17T23:17:51.095Z,11.90
2023-02-17T23:20:33.900Z,9.68
2023-02-17T23:23:16.963Z,14.68
2023-02-17T23:25:59.660Z,12.70
2023-02-17T23:28:43.699Z,14.70
2023-02-17T23:31:26.524Z,14.27
2023-02-17T23:34:09.522Z,12.90
2023-02-17T23:36:52.321Z,8.05
2023-02-17T23:39:37.641Z,9.77
2023-02-17T23:42:20.323Z,12.13
2023-02-17T23:45:04.470Z,13.80
2023-02-17T23:47:47.119Z,9.63
2023-02-17T23:50:29.859Z,11.00
2023-02-17T23:53:12.513Z,10.93
2023-02-17T23:56:02.879Z,13.40
2023-02-17T23:58:45.539Z,13.27
